sensor_id;sensor_type;location;lat;lon;timestamp;P1;durP1;ratioP1;P2;durP2;ratioP2
36815;SDS011;71982;52.294;6.760;2023-12-22T00:00:30;18.98;;;3.97;;
36815;SDS011;71982;52.294;6.760;2023-12-22T00:02:57;28.95;;;4.97;;
36815;SDS011;71982;52.294;6.760;2023-12-22T00:05:25;25.17;;;4.15;;
36815;SDS011;71982;52.294;6.760;2023-12-22T00:07:54;22.48;;;3.92;;
36815;SDS011;71982;52.294;6.760;2023-12-22T00:10:21;18.80;;;4.22;;
36815;SDS011;71982;52.294;6.760;2023-12-22T00:12:48;33.15;;;5.25;;
36815;SDS011;71982;52.294;6.760;2023-12-22T00:15:16;19.23;;;5.30;;
36815;SDS011;71982;52.294;6.760;2023-12-22T00:17:43;15.63;;;4.18;;
36815;SDS011;71982;52.294;6.760;2023-12-22T00:20:10;23.40;;;4.20;;
36815;SDS011;71982;52.294;6.760;2023-12-22T00:22:39;28.67;;;6.28;;
36815;SDS011;71982;52.294;6.760;2023-12-22T00:25:06;27.27;;;4.97;;
36815;SDS011;71982;52.294;6.760;2023-12-22T00:27:34;21.67;;;3.70;;
36815;SDS011;71982;52.294;6.760;2023-12-22T00:30:01;29.70;;;4.50;;
36815;SDS011;71982;52.294;6.760;2023-12-22T00:32:29;21.63;;;3.95;;
36815;SDS011;71982;52.294;6.760;2023-12-22T00:34:57;27.55;;;4.07;;
36815;SDS011;71982;52.294;6.760;2023-12-22T00:37:30;24.45;;;3.35;;
36815;SDS011;71982;52.294;6.760;2023-12-22T00:39:56;20.33;;;4.30;;
36815;SDS011;71982;52.294;6.760;2023-12-22T00:42:27;22.45;;;4.80;;
36815;SDS011;71982;52.294;6.760;2023-12-22T00:45:00;20.13;;;4.35;;
36815;SDS011;71982;52.294;6.760;2023-12-22T00:47:27;21.88;;;3.22;;
36815;SDS011;71982;52.294;6.760;2023-12-22T00:50:04;27.73;;;5.28;;
36815;SDS011;71982;52.294;6.760;2023-12-22T00:52:36;23.08;;;3.28;;
36815;SDS011;71982;52.294;6.760;2023-12-22T00:55:03;17.95;;;2.83;;
36815;SDS011;71982;52.294;6.760;2023-12-22T00:57:30;18.73;;;3.95;;
36815;SDS011;71982;52.294;6.760;2023-12-22T01:00:03;23.70;;;3.70;;
36815;SDS011;71982;52.294;6.760;2023-12-22T01:02:35;23.52;;;3.40;;
36815;SDS011;71982;52.294;6.760;2023-12-22T01:05:02;22.05;;;3.40;;
36815;SDS011;71982;52.294;6.760;2023-12-22T01:07:29;17.85;;;3.75;;
36815;SDS011;71982;52.294;6.760;2023-12-22T01:09:56;22.40;;;3.85;;
36815;SDS011;71982;52.294;6.760;2023-12-22T01:12:26;18.52;;;3.85;;
36815;SDS011;71982;52.294;6.760;2023-12-22T01:14:56;19.98;;;3.58;;
36815;SDS011;71982;52.294;6.760;2023-12-22T01:17:25;20.70;;;4.40;;
36815;SDS011;71982;52.294;6.760;2023-12-22T01:19:58;23.23;;;3.28;;
36815;SDS011;71982;52.294;6.760;2023-12-22T01:24:51;17.95;;;3.53;;
36815;SDS011;71982;52.294;6.760;2023-12-22T01:27:18;21.73;;;3.53;;
36815;SDS011;71982;52.294;6.760;2023-12-22T01:29:45;13.73;;;3.10;;
36815;SDS011;71982;52.294;6.760;2023-12-22T01:32:12;18.27;;;3.30;;
36815;SDS011;71982;52.294;6.760;2023-12-22T01:34:39;17.90;;;3.58;;
36815;SDS011;71982;52.294;6.760;2023-12-22T01:37:08;19.92;;;3.25;;
36815;SDS011;71982;52.294;6.760;2023-12-22T01:39:35;21.52;;;3.65;;
36815;SDS011;71982;52.294;6.760;2023-12-22T01:42:02;14.30;;;2.97;;
36815;SDS011;71982;52.294;6.760;2023-12-22T01:44:29;23.02;;;4.05;;
36815;SDS011;71982;52.294;6.760;2023-12-22T01:46:56;22.17;;;3.38;;
36815;SDS011;71982;52.294;6.760;2023-12-22T01:49:24;19.55;;;3.55;;
36815;SDS011;71982;52.294;6.760;2023-12-22T01:51:51;18.85;;;3.42;;
36815;SDS011;71982;52.294;6.760;2023-12-22T01:54:21;22.33;;;4.88;;
36815;SDS011;71982;52.294;6.760;2023-12-22T01:56:48;19.67;;;3.38;;
36815;SDS011;71982;52.294;6.760;2023-12-22T01:59:15;22.00;;;3.58;;
36815;SDS011;71982;52.294;6.760;2023-12-22T02:01:42;19.17;;;4.35;;
36815;SDS011;71982;52.294;6.760;2023-12-22T02:04:11;16.70;;;3.58;;
36815;SDS011;71982;52.294;6.760;2023-12-22T02:06:38;14.27;;;2.88;;
36815;SDS011;71982;52.294;6.760;2023-12-22T02:09:05;19.45;;;3.88;;
36815;SDS011;71982;52.294;6.760;2023-12-22T02:11:34;25.98;;;4.53;;
36815;SDS011;71982;52.294;6.760;2023-12-22T02:14:03;17.27;;;2.75;;
36815;SDS011;71982;52.294;6.760;2023-12-22T02:16:31;24.92;;;3.75;;
36815;SDS011;71982;52.294;6.760;2023-12-22T02:19:09;17.02;;;2.88;;
36815;SDS011;71982;52.294;6.760;2023-12-22T02:22:00;24.40;;;3.78;;
36815;SDS011;71982;52.294;6.760;2023-12-22T02:24:29;20.48;;;3.92;;
36815;SDS011;71982;52.294;6.760;2023-12-22T02:27:00;20.38;;;3.50;;
36815;SDS011;71982;52.294;6.760;2023-12-22T02:29:31;21.98;;;2.88;;
36815;SDS011;71982;52.294;6.760;2023-12-22T02:32:01;20.55;;;3.38;;
36815;SDS011;71982;52.294;6.760;2023-12-22T02:34:32;12.45;;;2.72;;
36815;SDS011;71982;52.294;6.760;2023-12-22T02:37:04;12.40;;;3.07;;
36815;SDS011;71982;52.294;6.760;2023-12-22T02:39:35;9.57;;;1.90;;
36815;SDS011;71982;52.294;6.760;2023-12-22T02:42:02;16.65;;;2.13;;
36815;SDS011;71982;52.294;6.760;2023-12-22T02:44:30;13.98;;;2.00;;
36815;SDS011;71982;52.294;6.760;2023-12-22T02:46:58;7.25;;;1.60;;
36815;SDS011;71982;52.294;6.760;2023-12-22T02:49:24;10.70;;;2.28;;
36815;SDS011;71982;52.294;6.760;2023-12-22T02:51:51;18.90;;;2.08;;
36815;SDS011;71982;52.294;6.760;2023-12-22T02:54:18;13.15;;;2.90;;
36815;SDS011;71982;52.294;6.760;2023-12-22T02:56:46;17.67;;;4.28;;
36815;SDS011;71982;52.294;6.760;2023-12-22T02:59:13;11.90;;;3.03;;
36815;SDS011;71982;52.294;6.760;2023-12-22T03:01:41;9.90;;;1.98;;
36815;SDS011;71982;52.294;6.760;2023-12-22T03:04:07;10.68;;;2.25;;
36815;SDS011;71982;52.294;6.760;2023-12-22T03:06:34;12.05;;;1.50;;
36815;SDS011;71982;52.294;6.760;2023-12-22T03:09:01;12.60;;;2.00;;
36815;SDS011;71982;52.294;6.760;2023-12-22T03:11:28;10.40;;;1.70;;
36815;SDS011;71982;52.294;6.760;2023-12-22T03:13:56;6.60;;;1.42;;
36815;SDS011;71982;52.294;6.760;2023-12-22T03:16:26;5.68;;;1.33;;
36815;SDS011;71982;52.294;6.760;2023-12-22T03:18:53;11.95;;;2.30;;
36815;SDS011;71982;52.294;6.760;2023-12-22T03:21:20;12.30;;;3.05;;
36815;SDS011;71982;52.294;6.760;2023-12-22T03:23:47;13.75;;;2.40;;
36815;SDS011;71982;52.294;6.760;2023-12-22T03:26:14;10.85;;;2.35;;
36815;SDS011;71982;52.294;6.760;2023-12-22T03:28:41;12.65;;;1.50;;
36815;SDS011;71982;52.294;6.760;2023-12-22T03:31:09;12.90;;;2.05;;
36815;SDS011;71982;52.294;6.760;2023-12-22T03:33:43;10.75;;;1.80;;
36815;SDS011;71982;52.294;6.760;2023-12-22T03:36:09;11.38;;;2.00;;
36815;SDS011;71982;52.294;6.760;2023-12-22T03:38:36;13.88;;;1.73;;
36815;SDS011;71982;52.294;6.760;2023-12-22T03:41:03;12.05;;;2.08;;
36815;SDS011;71982;52.294;6.760;2023-12-22T03:43:30;13.23;;;2.25;;
36815;SDS011;71982;52.294;6.760;2023-12-22T03:46:00;15.68;;;2.28;;
36815;SDS011;71982;52.294;6.760;2023-12-22T03:48:29;10.82;;;2.33;;
36815;SDS011;71982;52.294;6.760;2023-12-22T03:50:56;16.35;;;3.10;;
36815;SDS011;71982;52.294;6.760;2023-12-22T03:53:23;12.88;;;2.65;;
36815;SDS011;71982;52.294;6.760;2023-12-22T03:55:50;12.10;;;2.80;;
36815;SDS011;71982;52.294;6.760;2023-12-22T03:58:17;11.48;;;2.45;;
36815;SDS011;71982;52.294;6.760;2023-12-22T04:00:47;11.02;;;2.80;;
36815;SDS011;71982;52.294;6.760;2023-12-22T04:03:14;13.55;;;2.03;;
36815;SDS011;71982;52.294;6.760;2023-12-22T04:05:42;18.23;;;2.30;;
36815;SDS011;71982;52.294;6.760;2023-12-22T04:08:08;19.00;;;2.63;;
36815;SDS011;71982;52.294;6.760;2023-12-22T04:10:35;20.67;;;3.20;;
36815;SDS011;71982;52.294;6.760;2023-12-22T04:13:02;16.35;;;2.58;;
36815;SDS011;71982;52.294;6.760;2023-12-22T04:15:29;18.83;;;2.38;;
36815;SDS011;71982;52.294;6.760;2023-12-22T04:17:56;20.67;;;2.30;;
36815;SDS011;71982;52.294;6.760;2023-12-22T04:20:23;20.88;;;3.05;;
36815;SDS011;71982;52.294;6.760;2023-12-22T04:22:51;15.00;;;2.20;;
36815;SDS011;71982;52.294;6.760;2023-12-22T04:25:18;14.35;;;2.55;;
36815;SDS011;71982;52.294;6.760;2023-12-22T04:27:45;18.50;;;1.92;;
36815;SDS011;71982;52.294;6.760;2023-12-22T04:30:12;16.95;;;2.92;;
36815;SDS011;71982;52.294;6.760;2023-12-22T04:32:39;11.70;;;3.83;;
36815;SDS011;71982;52.294;6.760;2023-12-22T04:35:06;26.67;;;3.47;;
36815;SDS011;71982;52.294;6.760;2023-12-22T04:37:33;16.92;;;3.10;;
36815;SDS011;71982;52.294;6.760;2023-12-22T04:40:01;18.10;;;3.63;;
36815;SDS011;71982;52.294;6.760;2023-12-22T04:42:28;22.10;;;3.15;;
36815;SDS011;71982;52.294;6.760;2023-12-22T04:44:55;15.80;;;2.88;;
36815;SDS011;71982;52.294;6.760;2023-12-22T04:47:22;20.27;;;3.97;;
36815;SDS011;71982;52.294;6.760;2023-12-22T04:49:49;20.27;;;5.47;;
36815;SDS011;71982;52.294;6.760;2023-12-22T04:52:15;28.33;;;5.18;;
36815;SDS011;71982;52.294;6.760;2023-12-22T04:54:42;21.15;;;4.40;;
36815;SDS011;71982;52.294;6.760;2023-12-22T04:57:10;27.08;;;4.53;;
36815;SDS011;71982;52.294;6.760;2023-12-22T04:59:37;16.80;;;2.22;;
36815;SDS011;71982;52.294;6.760;2023-12-22T05:02:04;29.58;;;3.53;;
36815;SDS011;71982;52.294;6.760;2023-12-22T05:04:31;23.98;;;3.92;;
36815;SDS011;71982;52.294;6.760;2023-12-22T05:06:58;25.42;;;5.32;;
36815;SDS011;71982;52.294;6.760;2023-12-22T05:09:26;19.88;;;2.67;;
36815;SDS011;71982;52.294;6.760;2023-12-22T05:11:53;12.73;;;2.33;;
36815;SDS011;71982;52.294;6.760;2023-12-22T05:14:21;29.15;;;3.75;;
36815;SDS011;71982;52.294;6.760;2023-12-22T05:16:48;21.88;;;3.70;;
36815;SDS011;71982;52.294;6.760;2023-12-22T05:19:15;16.77;;;3.00;;
36815;SDS011;71982;52.294;6.760;2023-12-22T05:21:42;28.45;;;4.07;;
36815;SDS011;71982;52.294;6.760;2023-12-22T05:24:09;23.83;;;3.85;;
36815;SDS011;71982;52.294;6.760;2023-12-22T05:26:36;20.80;;;2.88;;
36815;SDS011;71982;52.294;6.760;2023-12-22T05:29:03;18.67;;;2.88;;
36815;SDS011;71982;52.294;6.760;2023-12-22T05:31:31;19.83;;;3.85;;
36815;SDS011;71982;52.294;6.760;2023-12-22T05:33:59;17.00;;;2.65;;
36815;SDS011;71982;52.294;6.760;2023-12-22T05:36:26;16.48;;;3.35;;
36815;SDS011;71982;52.294;6.760;2023-12-22T05:38:52;30.73;;;4.32;;
36815;SDS011;71982;52.294;6.760;2023-12-22T05:41:19;23.08;;;3.85;;
36815;SDS011;71982;52.294;6.760;2023-12-22T05:43:46;20.85;;;2.70;;
36815;SDS011;71982;52.294;6.760;2023-12-22T05:46:13;20.90;;;3.38;;
36815;SDS011;71982;52.294;6.760;2023-12-22T05:48:41;26.42;;;3.78;;
36815;SDS011;71982;52.294;6.760;2023-12-22T05:51:08;21.33;;;3.33;;
36815;SDS011;71982;52.294;6.760;2023-12-22T05:53:38;22.85;;;3.67;;
36815;SDS011;71982;52.294;6.760;2023-12-22T05:56:05;24.85;;;4.10;;
36815;SDS011;71982;52.294;6.760;2023-12-22T05:58:42;22.17;;;3.25;;
36815;SDS011;71982;52.294;6.760;2023-12-22T06:01:13;17.77;;;3.75;;
36815;SDS011;71982;52.294;6.760;2023-12-22T06:03:42;19.50;;;3.20;;
36815;SDS011;71982;52.294;6.760;2023-12-22T06:06:08;16.23;;;3.30;;
36815;SDS011;71982;52.294;6.760;2023-12-22T06:08:36;21.73;;;4.47;;
36815;SDS011;71982;52.294;6.760;2023-12-22T06:11:03;23.95;;;4.97;;
36815;SDS011;71982;52.294;6.760;2023-12-22T06:13:30;27.00;;;3.97;;
36815;SDS011;71982;52.294;6.760;2023-12-22T06:15:56;20.15;;;4.97;;
36815;SDS011;71982;52.294;6.760;2023-12-22T06:18:23;25.50;;;5.05;;
36815;SDS011;71982;52.294;6.760;2023-12-22T06:20:51;17.20;;;2.95;;
36815;SDS011;71982;52.294;6.760;2023-12-22T06:23:18;21.65;;;3.45;;
36815;SDS011;71982;52.294;6.760;2023-12-22T06:25:45;27.20;;;4.32;;
36815;SDS011;71982;52.294;6.760;2023-12-22T06:28:13;25.00;;;4.07;;
36815;SDS011;71982;52.294;6.760;2023-12-22T06:30:41;16.95;;;2.97;;
36815;SDS011;71982;52.294;6.760;2023-12-22T06:33:09;16.00;;;3.97;;
36815;SDS011;71982;52.294;6.760;2023-12-22T06:35:36;21.38;;;3.53;;
36815;SDS011;71982;52.294;6.760;2023-12-22T06:38:07;29.02;;;3.85;;
36815;SDS011;71982;52.294;6.760;2023-12-22T06:40:36;32.63;;;7.25;;
36815;SDS011;71982;52.294;6.760;2023-12-22T06:43:03;22.77;;;3.55;;
36815;SDS011;71982;52.294;6.760;2023-12-22T06:45:30;22.58;;;4.03;;
36815;SDS011;71982;52.294;6.760;2023-12-22T06:47:57;21.05;;;3.38;;
36815;SDS011;71982;52.294;6.760;2023-12-22T06:50:24;26.20;;;6.15;;
36815;SDS011;71982;52.294;6.760;2023-12-22T06:52:50;24.73;;;4.85;;
36815;SDS011;71982;52.294;6.760;2023-12-22T06:55:18;24.50;;;3.63;;
36815;SDS011;71982;52.294;6.760;2023-12-22T06:57:45;27.15;;;4.20;;
36815;SDS011;71982;52.294;6.760;2023-12-22T07:00:12;26.30;;;4.18;;
36815;SDS011;71982;52.294;6.760;2023-12-22T07:02:40;22.50;;;4.88;;
36815;SDS011;71982;52.294;6.760;2023-12-22T07:08:02;25.80;;;4.38;;
36815;SDS011;71982;52.294;6.760;2023-12-22T07:10:33;27.52;;;5.75;;
36815;SDS011;71982;52.294;6.760;2023-12-22T07:13:00;30.73;;;5.38;;
36815;SDS011;71982;52.294;6.760;2023-12-22T07:15:27;24.52;;;3.92;;
36815;SDS011;71982;52.294;6.760;2023-12-22T07:17:54;20.50;;;3.08;;
36815;SDS011;71982;52.294;6.760;2023-12-22T07:20:21;19.75;;;4.63;;
36815;SDS011;71982;52.294;6.760;2023-12-22T07:22:48;24.13;;;6.05;;
36815;SDS011;71982;52.294;6.760;2023-12-22T07:25:16;17.67;;;3.17;;
36815;SDS011;71982;52.294;6.760;2023-12-22T07:27:45;20.90;;;3.58;;
36815;SDS011;71982;52.294;6.760;2023-12-22T07:30:13;21.58;;;4.25;;
36815;SDS011;71982;52.294;6.760;2023-12-22T07:32:41;17.63;;;2.83;;
36815;SDS011;71982;52.294;6.760;2023-12-22T07:35:14;22.45;;;2.67;;
36815;SDS011;71982;52.294;6.760;2023-12-22T07:37:41;22.80;;;3.60;;
36815;SDS011;71982;52.294;6.760;2023-12-22T07:40:08;18.98;;;2.42;;
36815;SDS011;71982;52.294;6.760;2023-12-22T07:42:35;13.95;;;2.10;;
36815;SDS011;71982;52.294;6.760;2023-12-22T07:45:05;16.83;;;3.55;;
36815;SDS011;71982;52.294;6.760;2023-12-22T07:47:32;16.83;;;3.03;;
36815;SDS011;71982;52.294;6.760;2023-12-22T07:50:01;17.95;;;2.38;;
36815;SDS011;71982;52.294;6.760;2023-12-22T07:52:28;20.02;;;3.38;;
36815;SDS011;71982;52.294;6.760;2023-12-22T07:54:54;24.63;;;3.83;;
36815;SDS011;71982;52.294;6.760;2023-12-22T07:57:21;16.10;;;4.40;;
36815;SDS011;71982;52.294;6.760;2023-12-22T07:59:48;18.63;;;3.75;;
36815;SDS011;71982;52.294;6.760;2023-12-22T08:02:16;10.35;;;2.45;;
36815;SDS011;71982;52.294;6.760;2023-12-22T08:04:43;11.55;;;2.65;;
36815;SDS011;71982;52.294;6.760;2023-12-22T08:07:09;19.42;;;3.00;;
36815;SDS011;71982;52.294;6.760;2023-12-22T08:09:36;17.98;;;3.08;;
36815;SDS011;71982;52.294;6.760;2023-12-22T08:12:03;27.83;;;3.08;;
36815;SDS011;71982;52.294;6.760;2023-12-22T08:14:31;13.52;;;2.38;;
36815;SDS011;71982;52.294;6.760;2023-12-22T08:16:58;12.70;;;2.40;;
36815;SDS011;71982;52.294;6.760;2023-12-22T08:19:26;15.30;;;2.22;;
36815;SDS011;71982;52.294;6.760;2023-12-22T08:21:52;13.07;;;2.28;;
36815;SDS011;71982;52.294;6.760;2023-12-22T08:24:19;22.02;;;3.03;;
36815;SDS011;71982;52.294;6.760;2023-12-22T08:26:46;14.15;;;2.70;;
36815;SDS011;71982;52.294;6.760;2023-12-22T08:29:13;14.27;;;2.50;;
36815;SDS011;71982;52.294;6.760;2023-12-22T08:31:40;12.70;;;2.42;;
36815;SDS011;71982;52.294;6.760;2023-12-22T08:34:08;10.82;;;2.70;;
36815;SDS011;71982;52.294;6.760;2023-12-22T08:36:36;12.57;;;3.08;;
36815;SDS011;71982;52.294;6.760;2023-12-22T08:39:03;14.75;;;2.33;;
36815;SDS011;71982;52.294;6.760;2023-12-22T08:41:31;12.32;;;2.25;;
36815;SDS011;71982;52.294;6.760;2023-12-22T08:44:01;10.35;;;1.70;;
36815;SDS011;71982;52.294;6.760;2023-12-22T08:46:27;16.30;;;4.03;;
36815;SDS011;71982;52.294;6.760;2023-12-22T08:48:55;10.48;;;1.77;;
36815;SDS011;71982;52.294;6.760;2023-12-22T08:51:22;8.80;;;2.20;;
36815;SDS011;71982;52.294;6.760;2023-12-22T08:53:51;7.25;;;1.40;;
36815;SDS011;71982;52.294;6.760;2023-12-22T08:56:19;6.43;;;1.35;;
36815;SDS011;71982;52.294;6.760;2023-12-22T08:58:46;8.88;;;2.08;;
36815;SDS011;71982;52.294;6.760;2023-12-22T09:01:15;11.15;;;1.98;;
36815;SDS011;71982;52.294;6.760;2023-12-22T09:03:42;8.98;;;2.08;;
36815;SDS011;71982;52.294;6.760;2023-12-22T09:06:11;7.53;;;2.00;;
36815;SDS011;71982;52.294;6.760;2023-12-22T09:08:40;11.18;;;1.70;;
36815;SDS011;71982;52.294;6.760;2023-12-22T09:11:08;10.43;;;2.17;;
36815;SDS011;71982;52.294;6.760;2023-12-22T09:13:36;10.00;;;1.90;;
36815;SDS011;71982;52.294;6.760;2023-12-22T09:16:03;11.20;;;2.00;;
36815;SDS011;71982;52.294;6.760;2023-12-22T09:18:30;9.73;;;2.13;;
36815;SDS011;71982;52.294;6.760;2023-12-22T09:20:57;12.90;;;2.92;;
36815;SDS011;71982;52.294;6.760;2023-12-22T09:23:24;11.68;;;2.58;;
36815;SDS011;71982;52.294;6.760;2023-12-22T09:25:51;15.85;;;4.25;;
36815;SDS011;71982;52.294;6.760;2023-12-22T09:28:19;13.43;;;3.75;;
36815;SDS011;71982;52.294;6.760;2023-12-22T09:30:46;14.32;;;3.55;;
36815;SDS011;71982;52.294;6.760;2023-12-22T09:33:12;16.05;;;2.70;;
36815;SDS011;71982;52.294;6.760;2023-12-22T09:35:40;13.18;;;3.20;;
36815;SDS011;71982;52.294;6.760;2023-12-22T09:38:07;15.93;;;2.58;;
36815;SDS011;71982;52.294;6.760;2023-12-22T09:40:35;12.93;;;2.60;;
36815;SDS011;71982;52.294;6.760;2023-12-22T09:43:02;10.75;;;2.17;;
36815;SDS011;71982;52.294;6.760;2023-12-22T09:45:31;15.30;;;3.33;;
36815;SDS011;71982;52.294;6.760;2023-12-22T09:47:59;15.85;;;2.67;;
36815;SDS011;71982;52.294;6.760;2023-12-22T09:50:27;14.65;;;2.70;;
36815;SDS011;71982;52.294;6.760;2023-12-22T09:52:54;16.08;;;4.00;;
36815;SDS011;71982;52.294;6.760;2023-12-22T09:55:21;14.23;;;4.22;;
36815;SDS011;71982;52.294;6.760;2023-12-22T09:57:48;19.17;;;3.58;;
36815;SDS011;71982;52.294;6.760;2023-12-22T10:00:16;22.02;;;3.75;;
36815;SDS011;71982;52.294;6.760;2023-12-22T10:02:45;16.27;;;3.28;;
36815;SDS011;71982;52.294;6.760;2023-12-22T10:05:12;24.90;;;3.70;;
36815;SDS011;71982;52.294;6.760;2023-12-22T10:07:40;20.73;;;3.97;;
36815;SDS011;71982;52.294;6.760;2023-12-22T10:10:07;12.02;;;2.53;;
36815;SDS011;71982;52.294;6.760;2023-12-22T10:12:35;9.05;;;2.00;;
36815;SDS011;71982;52.294;6.760;2023-12-22T10:15:05;12.40;;;3.28;;
36815;SDS011;71982;52.294;6.760;2023-12-22T10:17:34;10.00;;;2.03;;
36815;SDS011;71982;52.294;6.760;2023-12-22T10:20:02;13.90;;;3.20;;
36815;SDS011;71982;52.294;6.760;2023-12-22T10:22:30;11.80;;;3.17;;
36815;SDS011;71982;52.294;6.760;2023-12-22T10:24:56;10.55;;;2.00;;
36815;SDS011;71982;52.294;6.760;2023-12-22T10:27:23;10.18;;;2.08;;
36815;SDS011;71982;52.294;6.760;2023-12-22T10:29:50;11.52;;;2.08;;
36815;SDS011;71982;52.294;6.760;2023-12-22T10:32:19;12.27;;;2.53;;
36815;SDS011;71982;52.294;6.760;2023-12-22T10:34:47;10.48;;;1.77;;
36815;SDS011;71982;52.294;6.760;2023-12-22T10:37:15;7.38;;;1.65;;
36815;SDS011;71982;52.294;6.760;2023-12-22T10:39:42;7.97;;;2.05;;
36815;SDS011;71982;52.294;6.760;2023-12-22T10:42:13;7.63;;;1.70;;
36815;SDS011;71982;52.294;6.760;2023-12-22T10:44:40;6.10;;;2.20;;
36815;SDS011;71982;52.294;6.760;2023-12-22T10:47:07;6.00;;;1.75;;
36815;SDS011;71982;52.294;6.760;2023-12-22T10:49:34;7.70;;;1.60;;
36815;SDS011;71982;52.294;6.760;2023-12-22T10:52:03;4.55;;;1.38;;
36815;SDS011;71982;52.294;6.760;2023-12-22T10:54:31;5.10;;;1.55;;
36815;SDS011;71982;52.294;6.760;2023-12-22T10:56:58;7.07;;;1.33;;
36815;SDS011;71982;52.294;6.760;2023-12-22T10:59:28;6.82;;;1.55;;
36815;SDS011;71982;52.294;6.760;2023-12-22T11:01:56;7.00;;;1.83;;
36815;SDS011;71982;52.294;6.760;2023-12-22T11:04:25;6.22;;;1.63;;
36815;SDS011;71982;52.294;6.760;2023-12-22T11:06:57;6.32;;;2.00;;
36815;SDS011;71982;52.294;6.760;2023-12-22T11:09:24;4.38;;;1.38;;
36815;SDS011;71982;52.294;6.760;2023-12-22T11:11:59;3.10;;;1.13;;
36815;SDS011;71982;52.294;6.760;2023-12-22T11:14:27;2.90;;;1.13;;
36815;SDS011;71982;52.294;6.760;2023-12-22T11:16:57;8.57;;;1.30;;
36815;SDS011;71982;52.294;6.760;2023-12-22T11:19:26;7.82;;;1.38;;
36815;SDS011;71982;52.294;6.760;2023-12-22T11:21:56;7.43;;;2.10;;
36815;SDS011;71982;52.294;6.760;2023-12-22T11:24:25;3.83;;;1.13;;
36815;SDS011;71982;52.294;6.760;2023-12-22T11:26:55;4.00;;;1.40;;
36815;SDS011;71982;52.294;6.760;2023-12-22T11:29:26;5.82;;;1.10;;
36815;SDS011;71982;52.294;6.760;2023-12-22T11:31:54;3.80;;;1.30;;
36815;SDS011;71982;52.294;6.760;2023-12-22T11:34:23;6.97;;;1.20;;
36815;SDS011;71982;52.294;6.760;2023-12-22T11:36:54;6.47;;;1.25;;
36815;SDS011;71982;52.294;6.760;2023-12-22T11:39:23;4.25;;;1.00;;
36815;SDS011;71982;52.294;6.760;2023-12-22T11:41:50;3.15;;;1.17;;
36815;SDS011;71982;52.294;6.760;2023-12-22T11:44:21;2.88;;;1.10;;
36815;SDS011;71982;52.294;6.760;2023-12-22T11:46:48;2.47;;;1.30;;
36815;SDS011;71982;52.294;6.760;2023-12-22T11:49:15;2.40;;;1.13;;
36815;SDS011;71982;52.294;6.760;2023-12-22T11:51:42;4.15;;;1.08;;
36815;SDS011;71982;52.294;6.760;2023-12-22T12:00:00;8.90;;;2.35;;
36815;SDS011;71982;52.294;6.760;2023-12-22T12:02:31;3.75;;;0.98;;
36815;SDS011;71982;52.294;6.760;2023-12-22T12:04:59;2.47;;;0.90;;
36815;SDS011;71982;52.294;6.760;2023-12-22T12:07:39;1.80;;;0.80;;
36815;SDS011;71982;52.294;6.760;2023-12-22T12:10:09;2.50;;;1.10;;
36815;SDS011;71982;52.294;6.760;2023-12-22T12:12:36;8.95;;;1.90;;
36815;SDS011;71982;52.294;6.760;2023-12-22T12:15:12;3.53;;;1.17;;
36815;SDS011;71982;52.294;6.760;2023-12-22T12:17:43;3.05;;;1.08;;
36815;SDS011;71982;52.294;6.760;2023-12-22T12:20:11;4.05;;;1.65;;
36815;SDS011;71982;52.294;6.760;2023-12-22T12:22:38;3.90;;;1.15;;
36815;SDS011;71982;52.294;6.760;2023-12-22T12:25:08;5.40;;;1.35;;
36815;SDS011;71982;52.294;6.760;2023-12-22T12:27:36;5.65;;;1.10;;
36815;SDS011;71982;52.294;6.760;2023-12-22T12:30:09;5.20;;;1.95;;
36815;SDS011;71982;52.294;6.760;2023-12-22T12:32:40;3.08;;;1.10;;
36815;SDS011;71982;52.294;6.760;2023-12-22T12:35:10;4.80;;;1.27;;
36815;SDS011;71982;52.294;6.760;2023-12-22T12:37:37;2.05;;;1.60;;
36815;SDS011;71982;52.294;6.760;2023-12-22T12:40:05;5.35;;;1.33;;
36815;SDS011;71982;52.294;6.760;2023-12-22T12:42:35;4.20;;;1.08;;
36815;SDS011;71982;52.294;6.760;2023-12-22T12:45:03;3.22;;;0.90;;
36815;SDS011;71982;52.294;6.760;2023-12-22T12:47:32;7.05;;;2.28;;
36815;SDS011;71982;52.294;6.760;2023-12-22T12:49:59;5.53;;;1.52;;
36815;SDS011;71982;52.294;6.760;2023-12-22T12:52:26;4.50;;;1.30;;
36815;SDS011;71982;52.294;6.760;2023-12-22T12:54:53;4.70;;;1.30;;
36815;SDS011;71982;52.294;6.760;2023-12-22T12:57:20;4.50;;;1.20;;
36815;SDS011;71982;52.294;6.760;2023-12-22T12:59:48;5.35;;;2.08;;
36815;SDS011;71982;52.294;6.760;2023-12-22T13:02:16;4.22;;;1.38;;
36815;SDS011;71982;52.294;6.760;2023-12-22T13:04:45;4.82;;;1.77;;
36815;SDS011;71982;52.294;6.760;2023-12-22T13:07:12;5.63;;;1.30;;
36815;SDS011;71982;52.294;6.760;2023-12-22T13:09:39;6.60;;;1.20;;
36815;SDS011;71982;52.294;6.760;2023-12-22T13:12:07;4.68;;;1.52;;
36815;SDS011;71982;52.294;6.760;2023-12-22T13:14:33;5.57;;;1.30;;
36815;SDS011;71982;52.294;6.760;2023-12-22T13:17:00;4.57;;;1.80;;
36815;SDS011;71982;52.294;6.760;2023-12-22T13:19:28;8.45;;;1.70;;
36815;SDS011;71982;52.294;6.760;2023-12-22T13:21:56;5.93;;;1.23;;
36815;SDS011;71982;52.294;6.760;2023-12-22T13:24:23;8.55;;;1.60;;
36815;SDS011;71982;52.294;6.760;2023-12-22T13:26:58;6.95;;;1.20;;
36815;SDS011;71982;52.294;6.760;2023-12-22T13:29:26;4.85;;;1.02;;
36815;SDS011;71982;52.294;6.760;2023-12-22T13:31:53;4.35;;;1.20;;
36815;SDS011;71982;52.294;6.760;2023-12-22T13:34:20;2.75;;;1.08;;
36815;SDS011;71982;52.294;6.760;2023-12-22T13:36:47;3.38;;;1.30;;
36815;SDS011;71982;52.294;6.760;2023-12-22T13:39:16;7.20;;;1.50;;
36815;SDS011;71982;52.294;6.760;2023-12-22T13:41:43;3.15;;;1.05;;
36815;SDS011;71982;52.294;6.760;2023-12-22T13:44:11;4.53;;;1.23;;
36815;SDS011;71982;52.294;6.760;2023-12-22T13:46:39;2.85;;;1.00;;
36815;SDS011;71982;52.294;6.760;2023-12-22T13:49:08;5.35;;;1.58;;
36815;SDS011;71982;52.294;6.760;2023-12-22T13:51:39;3.28;;;1.42;;
36815;SDS011;71982;52.294;6.760;2023-12-22T13:54:09;4.10;;;1.25;;
36815;SDS011;71982;52.294;6.760;2023-12-22T13:56:37;3.97;;;1.10;;
36815;SDS011;71982;52.294;6.760;2023-12-22T13:59:06;4.95;;;1.38;;
36815;SDS011;71982;52.294;6.760;2023-12-22T14:01:33;4.30;;;1.10;;
36815;SDS011;71982;52.294;6.760;2023-12-22T14:04:00;3.92;;;1.10;;
36815;SDS011;71982;52.294;6.760;2023-12-22T14:06:28;3.75;;;0.98;;
36815;SDS011;71982;52.294;6.760;2023-12-22T14:08:54;4.60;;;1.52;;
36815;SDS011;71982;52.294;6.760;2023-12-22T14:11:21;4.53;;;1.52;;
36815;SDS011;71982;52.294;6.760;2023-12-22T14:13:49;6.43;;;1.30;;
36815;SDS011;71982;52.294;6.760;2023-12-22T14:16:16;6.45;;;1.48;;
36815;SDS011;71982;52.294;6.760;2023-12-22T14:18:43;5.68;;;1.88;;
36815;SDS011;71982;52.294;6.760;2023-12-22T14:21:10;3.50;;;1.20;;
36815;SDS011;71982;52.294;6.760;2023-12-22T14:23:37;2.60;;;1.23;;
36815;SDS011;71982;52.294;6.760;2023-12-22T14:26:04;2.85;;;1.35;;
36815;SDS011;71982;52.294;6.760;2023-12-22T14:28:31;5.05;;;1.42;;
36815;SDS011;71982;52.294;6.760;2023-12-22T14:30:59;4.47;;;1.30;;
36815;SDS011;71982;52.294;6.760;2023-12-22T14:33:26;3.60;;;2.45;;
36815;SDS011;71982;52.294;6.760;2023-12-22T14:35:53;3.45;;;1.27;;
36815;SDS011;71982;52.294;6.760;2023-12-22T14:38:20;3.33;;;1.30;;
36815;SDS011;71982;52.294;6.760;2023-12-22T14:40:46;5.57;;;2.03;;
36815;SDS011;71982;52.294;6.760;2023-12-22T14:43:13;6.45;;;2.47;;
36815;SDS011;71982;52.294;6.760;2023-12-22T14:45:40;5.57;;;2.47;;
36815;SDS011;71982;52.294;6.760;2023-12-22T14:48:08;7.65;;;1.60;;
36815;SDS011;71982;52.294;6.760;2023-12-22T14:50:35;7.88;;;1.35;;
36815;SDS011;71982;52.294;6.760;2023-12-22T14:53:02;6.22;;;1.50;;